• Join FlightAware (Why Join?)
  • Login
  • US Flag 
04:42PM EDT


 

Airport Tracker/Info


-or-


 

Live Flight TrackerFlight Track Log ✈ N27XP ✈ 22-Aug-2013 ✈ KBED - KSOP

Flight Track Log - Related Links

Times and Time Zones

All times are in EDT time to prevent confusion due to time zone crossing. See the N27XP flight status page for this flight to view local times or setup timezone preferences in your user account.

Time Position Orientation Groundspeed Altitude Reporting Facility
EDT Latitude Longitude Course Direction KTS MPH feet Rate Location/Type
02:43PM 42.4500 -71.3000 221° Southwest 162 186 1,000  Level KA90
02:44PM 42.3808 -71.3806 221° Southwest 201 231 4,100 2,220 Climbing Boston Center
02:45PM 42.3356 -71.4486 228° Southwest 230 265 7,100 2,640 Climbing Boston Center
02:46PM 42.3364 -71.5300 271° West 230 265 9,400 2,100 Climbing Boston Center
02:47PM 42.3392 -71.6339 272° West 242 278 11,400 1,860 Climbing Boston Center
02:48PM 42.3189 -71.7353 255° West 269 310 13,200 1,740 Climbing Boston Center
02:49PM 42.2819 -71.8339 243° Southwest 292 336 15,000 1,740 Climbing Boston Center
02:50PM 42.2367 -71.9439 241° Southwest 320 368 16,800 1,860 Climbing Boston Center
02:51PM 42.1956 -72.0506 243° Southwest 331 381 18,700 1,800 Climbing Boston Center
02:52PM 42.1394 -72.1489 232° Southwest 331 381 20,400 1,620 Climbing Boston Center
02:53PM 42.0856 -72.2414 232° Southwest 331 381 22,000 1,680 Climbing Boston Center
02:54PM 42.0294 -72.3394 232° Southwest 331 381 23,800 1,440 Climbing Boston Center
02:55PM 41.9731 -72.4317 231° Southwest 326 375 25,000 1,260 Climbing Boston Center
02:56PM 41.9147 -72.5267 230° Southwest 326 375 26,400 1,380 Climbing Boston Center
02:57PM 41.8606 -72.6242 233° Southwest 326 375 27,800 1,320 Climbing Boston Center
02:58PM 41.8039 -72.7158 230° Southwest 326 375 29,000 1,260 Climbing Boston Center
02:59PM 41.7411 -72.8183 231° Southwest 338 389 30,400 1,320 Climbing Boston Center
03:00PM 41.6825 -72.9181 232° Southwest 349 402 31,700 1,320 Climbing Boston Center
03:01PM 41.6258 -73.0122 231° Southwest 344 396 33,100 1,080 Climbing Boston Center
03:03PM 41.5414 -73.1606 233° Southwest 326 375 34,700 960 Climbing New York Center
03:04PM 41.4833 -73.2525 230° Southwest 326 375 35,700 600 Climbing New York Center
03:05PM 41.4250 -73.3472 231° Southwest 326 375 36,000 60 Climbing New York Center
03:06PM 41.3622 -73.4525 232° Southwest 338 389 35,900 60 Descending New York Center
03:07PM 41.2953 -73.5603 230° Southwest 365 420 36,200 600 Climbing New York Center
03:08PM 41.2322 -73.6681 232° Southwest 378 435 37,100 900 Climbing New York Center
03:09PM 41.1692 -73.7728 231° Southwest 378 435 38,000 420 Climbing New York Center
03:10PM 41.1039 -73.8800 231° Southwest 378 435 38,000  Level New York Center
03:11PM 41.0406 -73.9925 233° Southwest 383 441 38,000  Level New York Center
03:12PM 40.9708 -74.1075 231° Southwest 393 452 38,000  Level New York Center
03:13PM 40.9008 -74.2164 230° Southwest 393 452 38,000  Level New York Center
03:14PM 40.8353 -74.3256 232° Southwest 393 452 38,000  Level New York Center
03:15PM 40.7669 -74.4425 232° Southwest 393 452 38,000  Level New York Center
03:16PM 40.6989 -74.5511 230° Southwest 393 452 38,000  Level New York Center
03:17PM 40.6325 -74.6706 234° Southwest 399 459 38,000  Level New York Center
03:18PM 40.5703 -74.7928 236° Southwest 405 466 38,000  Level New York Center
03:19PM 40.5097 -74.9175 237° Southwest 405 466 38,000  Level New York Center
03:20PM 40.4469 -75.0392 236° Southwest 405 466 38,000 -60 Level New York Center
03:21PM 40.3839 -75.1633 236° Southwest 412 474 37,900  Descending New York Center
03:22PM 40.3208 -75.2872 236° Southwest 412 474 38,000  Climbing New York Center
03:24PM 40.1916 -75.4005 229° Southwest  Level Estimated
03:24PM 40.1864 -75.5258 229° Southwest 412 474 38,000  Level New York Center
03:25PM 40.1111 -75.6400 229° Southwest 419 482 38,000  Level New York Center
03:26PM 40.0253 -75.7425 222° Southwest 424 488 38,000  Level New York Center
03:27PM 39.9397 -75.8419 222° Southwest 424 488 38,000  Level New York Center
03:28PM 39.8519 -75.9439 222° Southwest 424 488 38,000  Level New York Center
03:29PM 39.7642 -76.0453 222° Southwest 424 488 38,000 -60 Level New York Center
03:31PM 39.6119 -76.2219 222° Southwest 439 505 37,900  Descending Washington Center
03:32PM 39.5217 -76.3233 221° Southwest 439 505 38,000  Climbing Washington Center
03:33PM 39.4378 -76.4325 225° Southwest 439 505 37,900  Descending Washington Center
03:34PM 39.3514 -76.5606 229° Southwest 433 498 38,000  Climbing Washington Center
03:35PM 39.2753 -76.6828 231° Southwest 433 498 38,000  Level Washington Center
03:36PM 39.2075 -76.7861 230° Southwest 438 504 38,000  Level Washington Center
03:37PM 39.1250 -76.9161 231° Southwest 433 498 38,000  Level Washington Center
03:38PM 39.0550 -77.0217 230° Southwest 433 498 38,000  Level Washington Center
03:39PM 38.9683 -77.1214 222° Southwest 428 493 38,000  Level Washington Center
03:40PM 38.8753 -77.2236 221° Southwest 429 494 38,000  Level Washington Center
03:42PM 38.6889 -77.4242 220° Southwest 439 505 38,000  Level Washington Center
03:43PM 38.5956 -77.5256 220° Southwest 444 511 38,000  Level Washington Center
03:44PM 38.5022 -77.6292 221° Southwest 444 511 38,000  Level Washington Center
03:45PM 38.4044 -77.7325 220° Southwest 444 511 38,000  Level Washington Center
03:46PM 38.3108 -77.8356 221° Southwest 444 511 38,000 -240 Level Washington Center
03:47PM 38.2044 -77.9486 220° Southwest 444 511 37,600 -1,020 Descending Washington Center
03:48PM 38.1019 -78.0564 220° Southwest 454 522 36,000 -1,860 Descending Washington Center
03:49PM 37.9997 -78.1611 219° Southwest 474 545 34,000 -1,920 Descending Washington Center
03:50PM 37.9003 -78.2314 209° Southwest 468 539 32,100 -1,020 Descending Washington Center
03:51PM 37.7861 -78.3036 207° Southwest 468 539 32,000 -120 Descending Washington Center
03:52PM 37.6758 -78.3731 206° Southwest 462 532 31,900 -840 Descending Washington Center
03:53PM 37.5508 -78.4550 207° Southwest 457 526 30,300 -1,560 Descending Washington Center
03:54PM 37.4406 -78.5292 208° Southwest 457 526 28,800 -1,500 Descending Washington Center
03:55PM 37.3306 -78.5981 206° Southwest 452 520 27,400 -1,500 Descending Washington Center
03:56PM 37.2181 -78.6694 207° Southwest 452 520 25,900 -1,440 Descending Washington Center
03:57PM 37.1058 -78.7403 207° Southwest 458 527 24,500 -1,320 Descending Washington Center
03:58PM 37.0039 -78.8064 207° Southwest 458 527 23,300 -1,260 Descending Washington Center
03:59PM 36.8978 -78.8747 207° Southwest 453 521 22,100 -1,140 Descending Washington Center
04:00PM 36.7936 -78.9403 207° Southwest 441 507 21,000 -1,080 Descending Washington Center
04:01PM 36.6814 -78.9950 201° Southwest 436 502 20,000 -540 Descending Washington Center
04:02PM 36.5628 -78.9847 176° South 418 481 20,000  Level Washington Center
04:03PM 36.4450 -78.9511 167° South 418 481 20,000  Level Washington Center
04:04PM 36.3289 -78.9178 167° South 423 487 20,000  Level Washington Center
04:05PM 36.2131 -78.8819 166° South 428 493 20,000 -540 Level Washington Center
04:06PM 36.0950 -78.8489 167° South 428 493 19,000 -1,620 Descending Washington Center
04:07PM 35.9811 -78.8186 168° South 428 493 16,900 -2,220 Descending Washington Center
04:08PM 35.8347 -78.8356 185° South 404 465 14,100 -1,860 Descending Washington Center
04:09PM 35.7836 -78.8744 212° Southwest 368 423 13,200 -840 Descending Washington Center
04:10PM 35.7044 -78.9453 216° Southwest 355 409 12,700 -1,380 Descending Washington Center
04:11PM 35.6294 -79.0139 217° Southwest 355 409 10,500 -2,220 Descending Washington Center
04:12PM 35.5522 -79.0869 218° Southwest 332 382 8,300 -1,800 Descending Washington Center
04:13PM 35.5072 -79.1258 215° Southwest 303 349 6,900 -1,440 Descending Washington Center
04:14PM 35.4278 -79.1964 216° Southwest 279 321 5,500 -1,380 Descending Washington Center
04:15PM 35.3742 -79.2450 216° Southwest 253 291 4,200 -1,320 Descending Washington Center